Latest Weather Observations for Windorah

IDQ60801

Issued at 11:21 am EST Saturday 22 September 2018 (issued every 10 minutes, with the page automatically refreshed every 10 minutes)

About weather observations | Map of weather stations | Latest weather observations for QLD | Other Formats
Station Details ID: 038076 Name: WINDORAH AIRPORT Lat: -25.41 Lon: 142.66 Height: 132.16 m
Data from the previous 72 hours. | See also: Recent months at Windorah
Date/Time
EST
Temp
°C
App
Temp
°C
Dew
Point
°C
Rel
Hum
%
Delta-T
°C
Wind Press
QNH
hPa
Press
MSL
hPa
Rain since
9am
mm
Dir  Spd
km/h
Gust
km/h
Spd
kts
Gust
kts
22/11:00am 24.5 18.6 -0.6 19 11.4 ENE 20 30 11 16 1024.9 1024.5 0.0
22/10:30am 23.6 17.7 -2.1 18 11.3 NE 19 30 10 16 1025.3 1025.0 0.0
22/10:00am 23.5 17.5 -2.9 17 11.4 NE 19 26 10 14 1025.4 1025.1 0.0
22/09:30am 22.4 16.1 -3.8 17 11.0 NE 20 28 11 15 1025.5 1025.2 0.0
22/09:00am 21.9 14.9 -7.7 13 11.4 NE 22 30 12 16 1025.5 1025.2 0.0
22/08:30am 21.3 15.5 -8.2 13 11.3 E 15 20 8 11 1025.3 1025.0 0.0
22/08:00am 20.0 13.9 -8.3 14 10.6 E 17 22 9 12 1024.5 1024.1 0.0
22/07:30am 18.9 12.7 -9.1 14 10.2 E 17 24 9 13 1024.1 1023.7 0.0
22/07:00am 18.5 11.3 -9.5 14 10.1 E 22 28 12 15 1023.3 1022.9 0.0
22/06:30am 18.0 11.2 -9.9 14 9.9 E 20 28 11 15 1022.9 1022.5 0.0
22/06:00am 17.3 10.4 -10.4 14 9.6 E 20 26 11 14 1022.6 1022.2 0.0
22/05:30am 17.0 9.7 -10.7 14 9.6 ESE 22 30 12 16 1022.3 1021.9 0.0
22/05:00am 17.0 11.0 -10.7 14 9.5 ESE 15 20 8 11 1023.0 1022.6 0.0
22/04:30am 16.8 11.2 -10.8 14 9.5 SE 13 17 7 9 1022.9 1022.5 0.0
22/04:00am 17.1 11.2 -10.6 14 9.6 SE 15 20 8 11 1022.7 1022.3 0.0
22/03:30am 17.5 11.9 -11.2 13 9.9 SE 13 19 7 10 1022.6 1022.2 0.0
22/03:00am 17.9 11.9 -10.9 13 10.0 SE 15 20 8 11 1022.5 1022.1 0.0
22/02:30am 17.8 12.2 -10.9 13 10.0 SE 13 17 7 9 1022.7 1022.3 0.0
22/02:00am 17.8 11.8 -10.9 13 9.9 SE 15 20 8 11 1022.8 1022.4 0.0
22/01:30am 17.8 11.8 -10.9 13 10.0 SE 15 20 8 11 1022.7 1022.3 0.0
22/01:00am 17.1 11.5 -10.6 14 9.6 SE 13 15 7 8 1022.9 1022.5 0.0
22/12:30am 15.3 10.5 -11.1 15 8.8 SE 9 11 5 6 1023.2 1022.8 0.0
22/12:00am 16.7 11.8 -11.8 13 9.5 SSE 9 13 5 7 1023.2 1022.8 0.0
 
Date/Time
EST
Temp
°C
App
Temp
°C
Dew
Point
°C
Rel
Hum
%
Delta-T
°C
Wind Press
QNH
hPa
Press
MSL
hPa
Rain since
9am
mm
Dir  Spd
km/h
Gust
km/h
Spd
kts
Gust
kts
21/11:30pm 17.7 12.1 -11.0 13 9.9 SSE 13 17 7 9 1023.2 1022.8 0.0
21/11:00pm 16.9 11.6 -11.7 13 9.6 SSE 11 15 6 8 1023.3 1022.9 0.0
21/10:30pm 17.5 11.9 -11.2 13 9.9 SSE 13 15 7 8 1023.3 1022.9 0.0
21/10:00pm 17.6 12.3 -12.1 12 10.0 SSE 11 13 6 7 1023.3 1022.9 0.0
21/09:30pm 18.1 12.8 -11.7 12 10.2 SSE 11 13 6 7 1023.2 1022.8 0.0
21/09:00pm 18.3 13.0 -12.6 11 10.4 S 11 11 6 6 1023.1 1022.7 0.0
21/08:30pm 19.6 14.3 -12.8 10 11.1 SSE 11 13 6 7 1022.8 1022.4 0.0
21/08:00pm 20.7 15.3 -13.3 9 11.6 SSE 11 13 6 7 1022.3 1021.9 0.0
21/07:30pm 21.9 16.2 -12.4 9 12.2 SSE 13 15 7 8 1021.9 1021.5 0.0
21/07:00pm 23.5 18.2 -12.6 8 12.9 SSE 11 17 6 9 1021.6 1021.2 0.0
21/06:30pm 25.0 18.9 -13.2 7 13.8 SSE 15 20 8 11 1021.1 1020.7 0.0
21/06:00pm 25.9 18.9 -12.5 7 14.2 SSE 20 30 11 16 1020.6 1020.2 0.0
21/05:30pm 26.3 19.5 -12.2 7 14.4 SE 19 30 10 16 1020.3 1019.9 0.0
21/05:00pm 26.6 19.1 -13.9 6 14.7 SE 22 30 12 16 1020.1 1019.7 0.0
21/04:30pm 26.9 19.8 -13.7 6 14.9 ESE 20 28 11 15 1020.3 1019.9 0.0
21/04:00pm 26.9 19.3 -15.9 5 15.0 ESE 22 33 12 18 1019.9 1019.5 0.0
21/03:30pm 27.0 19.5 -13.6 6 14.9 ESE 22 33 12 18 1020.3 1019.9 0.0
21/03:00pm 27.0 19.4 -15.8 5 15.1 SE 22 32 12 17 1020.4 1020.0 0.0
21/02:30pm 25.9 18.8 -14.4 6 14.4 SSE 20 35 11 19 1020.7 1020.3 0.0
21/02:00pm 26.3 18.4 -14.1 6 14.5 ESE 24 33 13 18 1021.4 1021.0 0.0
21/01:30pm 25.7 18.3 -12.6 7 14.1 ESE 22 37 12 20 1021.8 1021.4 0.0
21/01:00pm 24.8 17.4 -11.7 8 13.5 ESE 22 33 12 18 1022.3 1021.9 0.0
21/12:30pm 24.7 17.7 -11.7 8 13.5 ESE 20 30 11 16 1023.0 1022.6 0.0
21/12:00pm 23.8 16.5 -10.9 9 12.9 ESE 22 35 12 19 1023.3 1022.9 0.0
21/11:30am 23.1 14.6 -11.5 9 12.7 ESE 28 39 15 21 1023.9 1023.5 0.0
21/11:00am 21.9 14.4 -8.7 12 11.6 ESE 24 41 13 22 1024.4 1024.0 0.0
21/10:30am 21.9 13.6 -8.7 12 11.7 ESE 28 39 15 21 1025.2 1024.8 0.0
21/10:00am 21.4 13.6 -8.1 13 11.2 E 26 39 14 21 1025.5 1025.2 0.0
21/09:30am 20.8 13.0 -7.6 14 10.9 ESE 26 43 14 23 1025.3 1025.0 0.0
21/09:00am 19.1 10.6 -7.3 16 10.0 ESE 30 43 16 23 1025.0 1024.6 0.0
21/08:30am 18.0 10.6 -7.4 17 9.5 ESE 24 37 13 20 1025.0 1024.6 0.0
21/08:00am 16.4 9.4 -7.3 19 8.7 ESE 22 33 12 18 1024.8 1024.4 0.0
21/07:30am 14.7 8.2 -7.4 21 8.0 SE 19 26 10 14 1024.4 1024.0 0.0
21/07:00am 13.2 7.1 -8.0 22 7.4 SE 17 20 9 11 1024.0 1023.6 0.0
21/06:30am 11.9 6.5 -8.0 24 6.8 SE 13 17 7 9 1023.7 1023.3 0.0
21/06:00am 11.4 6.0 -7.9 25 6.6 SE 13 15 7 8 1023.3 1022.9 0.0
21/05:30am 10.1 5.5 -8.5 26 6.2 SSE 9 11 5 6 1023.0 1022.6 0.0
21/05:00am 10.6 5.5 -9.1 24 6.4 SSE 11 13 6 7 1022.7 1022.3 0.0
21/04:30am 12.6 7.2 -8.5 22 7.2 SE 13 17 7 9 1022.3 1021.9 0.0
21/04:00am 13.2 7.8 -8.6 21 7.5 SE 13 19 7 10 1022.2 1021.8 0.0
21/03:30am 13.7 7.9 -8.2 21 7.7 SE 15 20 8 11 1022.1 1021.7 0.0
21/03:00am 14.1 8.4 -7.9 21 7.8 SE 15 20 8 11 1022.1 1021.7 0.0
21/02:30am 12.9 7.9 -7.7 23 7.2 SE 11 15 6 8 1022.3 1021.9 0.0
21/02:00am 12.2 7.6 -8.3 23 7.0 SE 9 11 5 6 1022.4 1022.0 0.0
21/01:30am 12.1 7.4 -8.9 22 7.1 SSE 9 11 5 6 1022.5 1022.1 0.0
21/01:00am 12.8 8.1 -8.9 21 7.4 SSE 9 11 5 6 1022.8 1022.4 0.0
21/12:30am 13.1 8.4 -8.7 21 7.5 SSE 9 11 5 6 1023.0 1022.6 0.0
21/12:00am 13.7 9.4 -8.8 20 7.7 SSE 7 9 4 5 1023.1 1022.7 0.0
 
Date/Time
EST
Temp
°C
App
Temp
°C
Dew
Point
°C
Rel
Hum
%
Delta-T
°C
Wind Press
QNH
hPa
Press
MSL
hPa
Rain since
9am
mm
Dir  Spd
km/h
Gust
km/h
Spd
kts
Gust
kts
20/11:30pm 14.6 9.9 -9.4 18 8.3 SSE 9 11 5 6 1023.0 1022.6 0.0
20/11:00pm 15.2 10.5 -8.9 18 8.4 SSE 9 11 5 6 1022.9 1022.5 0.0
20/10:30pm 16.0 11.3 -9.0 17 8.8 SSE 9 11 5 6 1022.9 1022.5 0.0
20/10:00pm 15.8 11.1 -9.2 17 8.7 S 9 11 5 6 1022.7 1022.3 0.0
20/09:30pm 16.9 12.1 -9.9 15 9.4 SSE 9 11 5 6 1022.4 1022.0 0.0
20/09:00pm 17.3 12.6 -9.5 15 9.5 SSE 9 11 5 6 1022.0 1021.6 0.0
20/08:30pm 17.9 13.1 -9.9 14 9.9 SSE 9 11 5 6 1021.7 1021.3 0.0
20/08:00pm 19.4 14.2 -10.7 12 10.7 SSE 11 15 6 8 1021.2 1020.8 0.0
20/07:30pm 21.0 15.5 -9.4 12 11.3 SSE 13 17 7 9 1020.6 1020.2 0.0
20/07:00pm 22.0 16.1 -9.8 11 11.8 SE 15 20 8 11 1020.0 1019.6 0.0
20/06:30pm 22.9 16.1 -9.1 11 12.2 SSE 20 28 11 15 1019.4 1019.0 0.0
20/06:00pm 23.7 16.9 -9.7 10 12.7 SSE 20 26 11 14 1019.3 1018.9 0.0
20/05:30pm 24.2 16.3 -9.3 10 12.9 SSE 26 35 14 19 1019.1 1018.7 0.0
20/05:00pm 24.4 16.0 -10.5 9 13.2 S 28 39 15 21 1019.0 1018.6 0.0
20/04:30pm 24.8 17.2 -10.2 9 13.4 SSE 24 39 13 21 1018.9 1018.5 0.0
20/04:00pm 24.8 16.4 -10.2 9 13.3 SSE 28 37 15 20 1018.8 1018.3 0.0
20/03:30pm 24.7 16.3 -10.3 9 13.3 S 28 35 15 19 1018.5 1018.1 0.0
20/03:00pm 25.2 17.6 -9.9 9 13.5 SSE 24 32 13 17 1018.9 1018.5 0.0
20/02:30pm 25.4 18.2 -9.7 9 13.6 SSE 22 37 12 20 1019.3 1018.9 0.0
20/02:00pm 24.3 15.9 -10.6 9 13.1 SSE 28 46 15 25 1019.7 1019.3 0.0
20/01:59pm 24.6 16.2 -10.3 9 13.3 SSE 28 46 15 25 1019.6 1019.2 0.0
20/01:30pm 24.3 16.3 -10.6 9 13.2 SSE 26 35 14 19 1019.9 1019.5 0.0
20/01:00pm 23.4 15.7 -11.2 9 12.7 SSE 24 35 13 19 1020.4 1020.0 0.0
20/12:30pm 22.8 15.2 -9.2 11 12.2 SE 24 37 13 20 1021.0 1020.6 0.0
20/12:00pm 23.4 15.9 -8.7 11 12.4 SSE 24 35 13 19 1021.5 1021.1 0.0
20/11:30am 21.4 13.6 -8.1 13 11.3 SSE 26 41 14 22 1021.9 1021.5 0.0
20/11:00am 20.9 13.4 -8.5 13 11.1 SE 24 37 13 20 1022.2 1021.8 0.0
20/10:30am 20.8 13.4 -7.6 14 10.9 SE 24 33 13 18 1022.5 1022.1 0.0
20/10:00am 19.6 11.4 -7.7 15 10.3 SSE 28 39 15 21 1022.6 1022.2 0.0
20/09:30am 18.9 11.2 -6.7 17 9.8 SE 26 39 14 21 1022.4 1022.0 0.0
20/09:00am 17.6 9.1 -7.0 18 9.2 SE 30 43 16 23 1022.3 1021.9 0.0
20/08:30am 17.0 9.7 -6.8 19 8.9 SE 24 35 13 19 1022.2 1021.8 0.0
20/08:00am 15.0 9.8 -5.9 23 7.8 SSE 13 17 7 9 1022.0 1021.6 0.0
20/07:30am 12.8 8.4 -6.2 26 6.9 S 9 13 5 7 1021.5 1021.1 0.0
20/07:00am 11.2 7.1 -6.6 28 6.2 S 7 7 4 4 1021.2 1020.8 0.0
20/06:30am 10.7 6.8 -6.6 29 6.0 S 6 7 3 4 1020.8 1020.4 0.0
20/06:00am 10.8 6.9 -7.0 28 6.1 SSW 6 7 3 4 1020.3 1019.9 0.0
20/05:30am 11.1 6.6 -7.2 27 6.3 S 9 9 5 5 1019.7 1019.3 0.0
20/05:00am 11.7 6.8 -7.1 26 6.6 SSW 11 13 6 7 1019.4 1019.0 0.0
20/04:30am 11.8 6.9 -7.6 25 6.7 SSW 11 13 6 7 1019.2 1018.8 0.0
20/04:00am 12.7 7.8 -7.3 24 7.0 S 11 13 6 7 1018.8 1018.3 0.0
20/03:30am 13.3 8.4 -7.4 23 7.3 S 11 15 6 8 1018.4 1018.0 0.0
20/03:00am 13.8 8.5 -7.5 22 7.6 S 13 17 7 9 1018.3 1017.9 0.0
20/02:30am 14.7 9.4 -7.4 21 8.0 S 13 15 7 8 1018.5 1018.1 0.0
20/02:00am 15.6 9.5 -7.2 20 8.3 S 17 20 9 11 1018.3 1017.9 0.0
20/01:30am 16.4 9.9 -7.9 18 8.8 S 19 22 10 12 1018.5 1018.1 0.0
20/01:00am 17.5 10.8 -7.8 17 9.3 S 20 30 11 16 1018.8 1018.3 0.0
20/12:30am 17.6 11.8 -5.0 21 8.9 SSW 17 26 9 14 1018.9 1018.5 0.0
20/12:00am 16.8 11.5 -3.9 24 8.2 SW 15 20 8 11 1018.5 1018.1 0.0
 
Date/Time
EST
Temp
°C
App
Temp
°C
Dew
Point
°C
Rel
Hum
%
Delta-T
°C
Wind Press
QNH
hPa
Press
MSL
hPa
Rain since
9am
mm
Dir  Spd
km/h
Gust
km/h
Spd
kts
Gust
kts
19/11:30pm 17.3 12.0 -3.4 24 8.4 SW 15 20 8 11 1018.4 1018.0 0.0
19/11:00pm 17.7 12.8 -3.7 23 8.6 SW 13 15 7 8 1018.5 1018.1 0.0
19/10:30pm 18.5 13.2 -3.6 22 9.0 SSW 15 19 8 10 1018.3 1017.9 0.0
19/10:00pm 19.0 14.1 -3.2 22 9.1 SSW 13 15 7 8 1018.4 1018.0 0.0
19/09:30pm 19.8 14.6 -3.1 21 9.5 SSW 15 20 8 11 1018.2 1017.8 0.0
19/09:00pm 20.3 14.3 -2.7 21 9.7 SSW 19 22 10 12 1017.9 1017.5 0.0
19/08:30pm 20.6 14.1 -2.5 21 9.8 SSW 22 28 12 15 1017.8 1017.4 0.0
19/08:00pm 20.8 14.3 -2.3 21 9.9 SSW 22 32 12 17 1017.2 1016.8 0.0
19/07:30pm 21.1 13.5 -2.0 21 10.0 SSW 28 39 15 21 1016.4 1016.0 0.0
19/07:00pm 21.7 13.5 -0.9 22 10.0 SSW 32 43 17 23 1016.1 1015.7 0.0
19/06:30pm 22.7 14.3 -0.7 21 10.5 SSW 33 41 18 22 1015.6 1015.2 0.0
19/06:00pm 23.7 15.3 -1.3 19 11.2 SSW 33 41 18 22 1015.2 1014.8 0.0
19/05:30pm 25.1 16.3 -0.9 18 11.8 SSW 35 44 19 24 1014.6 1014.2 0.0
19/05:00pm 28.5 20.7 -3.6 12 14.3 SW 28 41 15 22 1013.7 1013.3 0.0
19/04:30pm 29.4 22.2 -5.4 10 15.1 SW 24 33 13 18 1013.4 1013.0 0.0
19/04:00pm 30.2 23.8 -4.8 10 15.5 SW 20 30 11 16 1013.2 1012.8 0.0
19/03:30pm 30.4 23.9 -6.0 9 15.8 SSW 20 32 11 17 1013.1 1012.7 0.0
19/03:00pm 30.9 24.5 -7.1 8 16.3 SSW 19 28 10 15 1013.2 1012.8 0.0
19/02:30pm 29.8 23.5 -9.7 7 16.0 SW 17 28 9 15 1013.7 1013.3 0.0
19/02:00pm 29.3 23.0 -10.0 7 15.8 S 17 26 9 14 1013.7 1013.3 0.0
19/01:30pm 29.0 22.9 -12.2 6 15.9 SSW 15 28 8 15 1014.0 1013.6 0.0
19/01:00pm 28.0 21.6 -11.0 7 15.2 SW 17 24 9 13 1014.6 1014.2 0.0
19/12:30pm 27.6 22.2 -13.2 6 15.2 SSE 11 20 6 11 1014.6 1014.2 0.0
19/12:00pm 26.6 20.1 -13.9 6 14.7 SSE 17 28 9 15 1015.2 1014.8 0.0
19/11:30am 26.1 19.5 -14.2 6 14.5 SSE 17 24 9 13 1015.8 1015.4 0.0

Other Formats:

Comma delimited format used in spreadsheet applications
http://www.bom.gov.au/fwo/IDQ60801/IDQ60801.94489.axf

JavaScript Object Notation format (JSON) in row-major order
http://www.bom.gov.au/fwo/IDQ60801/IDQ60801.94489.json